sensor_id;sensor_type;location;lat;lon;timestamp;temperature;humidity
20856;DHT22;10588;49.542;8.444;2022-08-03T00:01:42;32.40;39.10
20856;DHT22;10588;49.542;8.444;2022-08-03T00:04:08;32.30;39.10
20856;DHT22;10588;49.542;8.444;2022-08-03T00:06:34;32.30;39.10
20856;DHT22;10588;49.542;8.444;2022-08-03T00:09:00;32.30;39.20
20856;DHT22;10588;49.542;8.444;2022-08-03T00:11:25;32.20;39.10
20856;DHT22;10588;49.542;8.444;2022-08-03T00:13:51;32.20;39.20
20856;DHT22;10588;49.542;8.444;2022-08-03T00:16:17;32.20;39.30
20856;DHT22;10588;49.542;8.444;2022-08-03T00:18:44;32.10;39.20
20856;DHT22;10588;49.542;8.444;2022-08-03T00:21:09;32.10;39.30
20856;DHT22;10588;49.542;8.444;2022-08-03T00:23:35;32.10;39.40
20856;DHT22;10588;49.542;8.444;2022-08-03T00:26:01;32.10;39.40
20856;DHT22;10588;49.542;8.444;2022-08-03T00:28:26;32.00;39.50
20856;DHT22;10588;49.542;8.444;2022-08-03T00:30:52;32.00;39.50
20856;DHT22;10588;49.542;8.444;2022-08-03T00:33:18;31.90;39.50
20856;DHT22;10588;49.542;8.444;2022-08-03T00:35:43;31.90;39.50
20856;DHT22;10588;49.542;8.444;2022-08-03T00:38:09;31.90;39.60
20856;DHT22;10588;49.542;8.444;2022-08-03T00:40:35;31.90;39.60
20856;DHT22;10588;49.542;8.444;2022-08-03T00:43:03;31.80;39.60
20856;DHT22;10588;49.542;8.444;2022-08-03T00:45:32;31.80;39.70
20856;DHT22;10588;49.542;8.444;2022-08-03T00:47:58;31.80;39.80
20856;DHT22;10588;49.542;8.444;2022-08-03T00:50:25;31.70;40.40
20856;DHT22;10588;49.542;8.444;2022-08-03T00:52:52;31.70;39.80
20856;DHT22;10588;49.542;8.444;2022-08-03T00:55:18;31.60;39.80
20856;DHT22;10588;49.542;8.444;2022-08-03T00:57:45;31.60;39.80
20856;DHT22;10588;49.542;8.444;2022-08-03T01:00:14;31.60;39.90
20856;DHT22;10588;49.542;8.444;2022-08-03T01:02:40;31.60;40.00
20856;DHT22;10588;49.542;8.444;2022-08-03T01:05:07;31.50;39.90
20856;DHT22;10588;49.542;8.444;2022-08-03T01:13:03;31.40;40.10
20856;DHT22;10588;49.542;8.444;2022-08-03T01:21:58;31.40;40.20
20856;DHT22;10588;49.542;8.444;2022-08-03T01:24:49;31.30;40.30
20856;DHT22;10588;49.542;8.444;2022-08-03T01:27:27;31.20;40.10
20856;DHT22;10588;49.542;8.444;2022-08-03T01:30:05;31.20;40.20
20856;DHT22;10588;49.542;8.444;2022-08-03T01:32:49;31.20;40.50
20856;DHT22;10588;49.542;8.444;2022-08-03T01:35:27;31.10;40.20
20856;DHT22;10588;49.542;8.444;2022-08-03T01:37:57;31.10;40.40
20856;DHT22;10588;49.542;8.444;2022-08-03T01:40:26;31.10;40.50
20856;DHT22;10588;49.542;8.444;2022-08-03T01:42:54;31.10;40.60
20856;DHT22;10588;49.542;8.444;2022-08-03T01:45:22;31.00;40.50
20856;DHT22;10588;49.542;8.444;2022-08-03T01:47:48;31.00;40.50
20856;DHT22;10588;49.542;8.444;2022-08-03T01:50:20;31.00;40.50
20856;DHT22;10588;49.542;8.444;2022-08-03T01:52:46;30.90;40.60
20856;DHT22;10588;49.542;8.444;2022-08-03T01:55:16;30.90;40.60
20856;DHT22;10588;49.542;8.444;2022-08-03T01:57:43;30.90;40.80
20856;DHT22;10588;49.542;8.444;2022-08-03T02:00:10;30.90;40.80
20856;DHT22;10588;49.542;8.444;2022-08-03T02:02:36;30.80;40.70
20856;DHT22;10588;49.542;8.444;2022-08-03T02:05:06;30.80;40.80
20856;DHT22;10588;49.542;8.444;2022-08-03T02:07:33;30.80;40.80
20856;DHT22;10588;49.542;8.444;2022-08-03T02:10:00;30.70;40.80
20856;DHT22;10588;49.542;8.444;2022-08-03T02:12:28;30.70;40.80
20856;DHT22;10588;49.542;8.444;2022-08-03T02:14:56;30.70;40.90
20856;DHT22;10588;49.542;8.444;2022-08-03T02:17:23;30.60;40.80
20856;DHT22;10588;49.542;8.444;2022-08-03T02:19:50;30.60;40.90
20856;DHT22;10588;49.542;8.444;2022-08-03T02:22:16;30.60;40.90
20856;DHT22;10588;49.542;8.444;2022-08-03T02:24:43;30.60;41.00
20856;DHT22;10588;49.542;8.444;2022-08-03T02:27:22;30.60;41.00
20856;DHT22;10588;49.542;8.444;2022-08-03T02:29:52;30.50;41.10
20856;DHT22;10588;49.542;8.444;2022-08-03T02:32:25;30.50;41.10
20856;DHT22;10588;49.542;8.444;2022-08-03T02:34:53;30.40;41.10
20856;DHT22;10588;49.542;8.444;2022-08-03T02:37:25;30.40;41.10
20856;DHT22;10588;49.542;8.444;2022-08-03T02:39:55;30.40;41.20
20856;DHT22;10588;49.542;8.444;2022-08-03T02:42:23;30.30;41.20
20856;DHT22;10588;49.542;8.444;2022-08-03T02:44:50;30.30;41.20
20856;DHT22;10588;49.542;8.444;2022-08-03T02:47:18;30.30;41.30
20856;DHT22;10588;49.542;8.444;2022-08-03T02:49:47;30.20;41.30
20856;DHT22;10588;49.542;8.444;2022-08-03T02:52:14;30.20;41.30
20856;DHT22;10588;49.542;8.444;2022-08-03T02:54:42;30.20;41.30
20856;DHT22;10588;49.542;8.444;2022-08-03T02:57:09;30.10;41.30
20856;DHT22;10588;49.542;8.444;2022-08-03T02:59:36;30.10;41.40
20856;DHT22;10588;49.542;8.444;2022-08-03T03:02:03;30.10;41.50
20856;DHT22;10588;49.542;8.444;2022-08-03T03:04:29;30.10;41.50
20856;DHT22;10588;49.542;8.444;2022-08-03T03:06:56;30.00;41.50
20856;DHT22;10588;49.542;8.444;2022-08-03T03:09:22;30.10;41.60
20856;DHT22;10588;49.542;8.444;2022-08-03T03:11:48;30.00;41.60
20856;DHT22;10588;49.542;8.444;2022-08-03T03:14:16;30.00;41.60
20856;DHT22;10588;49.542;8.444;2022-08-03T03:16:43;29.90;41.60
20856;DHT22;10588;49.542;8.444;2022-08-03T03:19:12;29.90;41.70
20856;DHT22;10588;49.542;8.444;2022-08-03T03:21:39;29.90;41.70
20856;DHT22;10588;49.542;8.444;2022-08-03T03:24:05;29.90;41.70
20856;DHT22;10588;49.542;8.444;2022-08-03T03:26:33;29.80;41.70
20856;DHT22;10588;49.542;8.444;2022-08-03T03:29:00;29.80;41.80
20856;DHT22;10588;49.542;8.444;2022-08-03T03:31:25;29.90;41.90
20856;DHT22;10588;49.542;8.444;2022-08-03T03:33:51;29.70;41.80
20856;DHT22;10588;49.542;8.444;2022-08-03T03:36:17;29.70;41.80
20856;DHT22;10588;49.542;8.444;2022-08-03T03:38:43;29.70;41.90
20856;DHT22;10588;49.542;8.444;2022-08-03T03:41:09;29.70;41.90
20856;DHT22;10588;49.542;8.444;2022-08-03T03:43:34;29.60;42.00
20856;DHT22;10588;49.542;8.444;2022-08-03T03:46:00;29.60;42.00
20856;DHT22;10588;49.542;8.444;2022-08-03T03:48:27;29.60;42.10
20856;DHT22;10588;49.542;8.444;2022-08-03T03:50:53;29.60;42.10
20856;DHT22;10588;49.542;8.444;2022-08-03T03:53:18;29.50;42.10
20856;DHT22;10588;49.542;8.444;2022-08-03T03:55:44;29.50;42.20
20856;DHT22;10588;49.542;8.444;2022-08-03T03:58:10;29.40;42.10
20856;DHT22;10588;49.542;8.444;2022-08-03T04:00:35;29.40;42.10
20856;DHT22;10588;49.542;8.444;2022-08-03T04:03:01;29.40;42.20
20856;DHT22;10588;49.542;8.444;2022-08-03T04:05:27;29.40;42.20
20856;DHT22;10588;49.542;8.444;2022-08-03T04:08:17;29.40;42.30
20856;DHT22;10588;49.542;8.444;2022-08-03T04:11:06;29.30;42.40
20856;DHT22;10588;49.542;8.444;2022-08-03T04:16:11;29.30;42.50
20856;DHT22;10588;49.542;8.444;2022-08-03T04:18:40;29.30;42.50
20856;DHT22;10588;49.542;8.444;2022-08-03T04:21:08;29.20;42.50
20856;DHT22;10588;49.542;8.444;2022-08-03T04:23:37;29.20;42.50
20856;DHT22;10588;49.542;8.444;2022-08-03T04:26:07;29.20;42.60
20856;DHT22;10588;49.542;8.444;2022-08-03T04:28:35;29.10;42.60
20856;DHT22;10588;49.542;8.444;2022-08-03T04:31:03;29.10;42.60
20856;DHT22;10588;49.542;8.444;2022-08-03T04:33:33;29.10;43.30
20856;DHT22;10588;49.542;8.444;2022-08-03T04:36:02;29.00;42.70
20856;DHT22;10588;49.542;8.444;2022-08-03T04:38:35;29.10;42.80
20856;DHT22;10588;49.542;8.444;2022-08-03T04:41:01;29.00;42.70
20856;DHT22;10588;49.542;8.444;2022-08-03T04:43:28;29.00;42.80
20856;DHT22;10588;49.542;8.444;2022-08-03T04:45:57;29.00;42.80
20856;DHT22;10588;49.542;8.444;2022-08-03T04:48:23;29.00;42.90
20856;DHT22;10588;49.542;8.444;2022-08-03T04:50:49;28.90;42.80
20856;DHT22;10588;49.542;8.444;2022-08-03T04:53:15;28.90;42.90
20856;DHT22;10588;49.542;8.444;2022-08-03T04:55:42;28.90;42.90
20856;DHT22;10588;49.542;8.444;2022-08-03T04:58:08;28.90;43.00
20856;DHT22;10588;49.542;8.444;2022-08-03T05:00:33;28.90;43.00
20856;DHT22;10588;49.542;8.444;2022-08-03T05:02:59;28.80;43.00
20856;DHT22;10588;49.542;8.444;2022-08-03T05:05:25;28.80;43.10
20856;DHT22;10588;49.542;8.444;2022-08-03T05:07:50;28.80;43.10
20856;DHT22;10588;49.542;8.444;2022-08-03T05:10:16;28.80;43.20
20856;DHT22;10588;49.542;8.444;2022-08-03T05:12:43;28.80;43.20
20856;DHT22;10588;49.542;8.444;2022-08-03T05:15:09;28.70;43.20
20856;DHT22;10588;49.542;8.444;2022-08-03T05:17:34;28.70;43.20
20856;DHT22;10588;49.542;8.444;2022-08-03T05:20:01;28.70;43.30
20856;DHT22;10588;49.542;8.444;2022-08-03T05:22:28;28.70;43.30
20856;DHT22;10588;49.542;8.444;2022-08-03T05:24:54;28.60;43.30
20856;DHT22;10588;49.542;8.444;2022-08-03T05:27:20;28.60;43.30
20856;DHT22;10588;49.542;8.444;2022-08-03T05:29:46;28.60;43.30
20856;DHT22;10588;49.542;8.444;2022-08-03T05:32:12;28.60;43.30
20856;DHT22;10588;49.542;8.444;2022-08-03T05:34:38;28.60;43.40
20856;DHT22;10588;49.542;8.444;2022-08-03T05:37:04;28.60;43.40
20856;DHT22;10588;49.542;8.444;2022-08-03T05:39:29;28.60;43.50
20856;DHT22;10588;49.542;8.444;2022-08-03T05:41:55;28.60;43.50
20856;DHT22;10588;49.542;8.444;2022-08-03T05:44:20;28.50;43.50
20856;DHT22;10588;49.542;8.444;2022-08-03T05:46:46;28.50;43.50
20856;DHT22;10588;49.542;8.444;2022-08-03T05:49:12;28.50;43.50
20856;DHT22;10588;49.542;8.444;2022-08-03T05:51:37;28.50;43.60
20856;DHT22;10588;49.542;8.444;2022-08-03T05:54:03;28.50;43.60
20856;DHT22;10588;49.542;8.444;2022-08-03T05:56:29;28.50;43.60
20856;DHT22;10588;49.542;8.444;2022-08-03T05:58:55;28.50;43.60
20856;DHT22;10588;49.542;8.444;2022-08-03T06:01:21;28.50;43.70
20856;DHT22;10588;49.542;8.444;2022-08-03T06:03:47;28.40;43.60
20856;DHT22;10588;49.542;8.444;2022-08-03T06:06:13;28.40;43.60
20856;DHT22;10588;49.542;8.444;2022-08-03T06:08:40;28.40;43.70
20856;DHT22;10588;49.542;8.444;2022-08-03T06:11:06;28.50;43.90
20856;DHT22;10588;49.542;8.444;2022-08-03T06:13:32;28.40;43.80
20856;DHT22;10588;49.542;8.444;2022-08-03T06:15:58;28.40;43.90
20856;DHT22;10588;49.542;8.444;2022-08-03T06:18:24;28.40;43.90
20856;DHT22;10588;49.542;8.444;2022-08-03T06:20:50;28.40;43.90
20856;DHT22;10588;49.542;8.444;2022-08-03T06:23:16;28.40;43.90
20856;DHT22;10588;49.542;8.444;2022-08-03T06:25:41;28.40;43.90
20856;DHT22;10588;49.542;8.444;2022-08-03T06:28:07;28.40;43.90
20856;DHT22;10588;49.542;8.444;2022-08-03T06:30:33;28.40;43.90
20856;DHT22;10588;49.542;8.444;2022-08-03T06:32:58;28.40;44.00
20856;DHT22;10588;49.542;8.444;2022-08-03T06:35:24;28.40;44.00
20856;DHT22;10588;49.542;8.444;2022-08-03T06:37:52;28.40;44.00
20856;DHT22;10588;49.542;8.444;2022-08-03T06:40:22;28.40;44.00
20856;DHT22;10588;49.542;8.444;2022-08-03T06:43:00;28.40;44.10
20856;DHT22;10588;49.542;8.444;2022-08-03T06:45:26;28.40;44.00
20856;DHT22;10588;49.542;8.444;2022-08-03T06:48:07;28.40;44.00
20856;DHT22;10588;49.542;8.444;2022-08-03T06:50:34;28.40;44.20
20856;DHT22;10588;49.542;8.444;2022-08-03T06:53:00;28.50;44.10
20856;DHT22;10588;49.542;8.444;2022-08-03T06:55:26;28.50;44.10
20856;DHT22;10588;49.542;8.444;2022-08-03T06:57:52;28.50;44.80
20856;DHT22;10588;49.542;8.444;2022-08-03T07:00:18;28.50;44.10
20856;DHT22;10588;49.542;8.444;2022-08-03T07:02:44;28.50;44.10
20856;DHT22;10588;49.542;8.444;2022-08-03T07:05:10;28.50;44.10
20856;DHT22;10588;49.542;8.444;2022-08-03T07:07:36;28.50;44.20
20856;DHT22;10588;49.542;8.444;2022-08-03T07:10:03;28.60;44.20
20856;DHT22;10588;49.542;8.444;2022-08-03T07:12:29;28.60;44.20
20856;DHT22;10588;49.542;8.444;2022-08-03T07:14:56;28.60;44.20
20856;DHT22;10588;49.542;8.444;2022-08-03T07:17:22;28.60;44.20
20856;DHT22;10588;49.542;8.444;2022-08-03T07:19:48;28.60;44.10
20856;DHT22;10588;49.542;8.444;2022-08-03T07:22:14;28.60;44.20
20856;DHT22;10588;49.542;8.444;2022-08-03T07:24:39;28.70;44.30
20856;DHT22;10588;49.542;8.444;2022-08-03T07:27:06;28.60;44.20
20856;DHT22;10588;49.542;8.444;2022-08-03T07:29:34;28.70;44.20
20856;DHT22;10588;49.542;8.444;2022-08-03T07:31:59;28.70;44.20
20856;DHT22;10588;49.542;8.444;2022-08-03T07:34:25;28.70;44.30
20856;DHT22;10588;49.542;8.444;2022-08-03T07:36:51;28.70;44.20
20856;DHT22;10588;49.542;8.444;2022-08-03T07:39:17;28.80;44.20
20856;DHT22;10588;49.542;8.444;2022-08-03T07:41:42;28.80;44.20
20856;DHT22;10588;49.542;8.444;2022-08-03T07:44:08;28.80;44.20
20856;DHT22;10588;49.542;8.444;2022-08-03T07:46:34;28.80;44.20
20856;DHT22;10588;49.542;8.444;2022-08-03T07:48:59;28.90;44.20
20856;DHT22;10588;49.542;8.444;2022-08-03T07:51:25;28.90;44.20
20856;DHT22;10588;49.542;8.444;2022-08-03T07:53:51;28.90;44.20
20856;DHT22;10588;49.542;8.444;2022-08-03T07:56:16;28.90;44.20
20856;DHT22;10588;49.542;8.444;2022-08-03T07:58:42;29.00;44.30
20856;DHT22;10588;49.542;8.444;2022-08-03T08:01:08;29.00;44.20
20856;DHT22;10588;49.542;8.444;2022-08-03T08:03:33;29.00;44.20
20856;DHT22;10588;49.542;8.444;2022-08-03T08:05:59;29.00;44.20
20856;DHT22;10588;49.542;8.444;2022-08-03T08:08:24;29.00;44.20
20856;DHT22;10588;49.542;8.444;2022-08-03T08:10:50;29.10;44.20
20856;DHT22;10588;49.542;8.444;2022-08-03T08:13:15;29.10;44.20
20856;DHT22;10588;49.542;8.444;2022-08-03T08:15:41;29.10;44.10
20856;DHT22;10588;49.542;8.444;2022-08-03T08:18:06;29.10;44.10
20856;DHT22;10588;49.542;8.444;2022-08-03T08:20:34;29.20;44.20
20856;DHT22;10588;49.542;8.444;2022-08-03T08:23:04;29.20;44.10
20856;DHT22;10588;49.542;8.444;2022-08-03T08:25:30;29.20;43.70
20856;DHT22;10588;49.542;8.444;2022-08-03T08:27:57;29.20;43.60
20856;DHT22;10588;49.542;8.444;2022-08-03T08:30:23;29.30;43.70
20856;DHT22;10588;49.542;8.444;2022-08-03T08:32:50;29.30;43.60
20856;DHT22;10588;49.542;8.444;2022-08-03T08:35:16;29.30;43.50
20856;DHT22;10588;49.542;8.444;2022-08-03T08:37:42;29.30;43.40
20856;DHT22;10588;49.542;8.444;2022-08-03T08:40:09;29.40;43.50
20856;DHT22;10588;49.542;8.444;2022-08-03T08:42:39;29.40;43.50
20856;DHT22;10588;49.542;8.444;2022-08-03T08:45:05;29.50;43.50
20856;DHT22;10588;49.542;8.444;2022-08-03T08:47:35;29.50;43.40
20856;DHT22;10588;49.542;8.444;2022-08-03T08:50:01;29.50;43.40
20856;DHT22;10588;49.542;8.444;2022-08-03T08:52:28;29.60;43.40
20856;DHT22;10588;49.542;8.444;2022-08-03T08:54:59;29.60;43.30
20856;DHT22;10588;49.542;8.444;2022-08-03T08:57:28;29.70;43.90
20856;DHT22;10588;49.542;8.444;2022-08-03T08:59:57;29.70;43.30
20856;DHT22;10588;49.542;8.444;2022-08-03T09:02:29;29.70;43.20
20856;DHT22;10588;49.542;8.444;2022-08-03T09:04:55;29.70;43.20
20856;DHT22;10588;49.542;8.444;2022-08-03T09:07:21;29.80;43.20
20856;DHT22;10588;49.542;8.444;2022-08-03T09:09:47;29.80;43.20
20856;DHT22;10588;49.542;8.444;2022-08-03T09:12:13;29.90;43.20
20856;DHT22;10588;49.542;8.444;2022-08-03T09:14:39;29.90;43.20
20856;DHT22;10588;49.542;8.444;2022-08-03T09:17:04;29.90;43.10
20856;DHT22;10588;49.542;8.444;2022-08-03T09:19:31;30.00;43.20
20856;DHT22;10588;49.542;8.444;2022-08-03T09:22:16;30.00;43.10
20856;DHT22;10588;49.542;8.444;2022-08-03T09:25:05;30.00;43.00
20856;DHT22;10588;49.542;8.444;2022-08-03T09:27:43;30.00;42.90
20856;DHT22;10588;49.542;8.444;2022-08-03T09:30:16;30.10;42.90
20856;DHT22;10588;49.542;8.444;2022-08-03T09:32:43;30.10;42.80
20856;DHT22;10588;49.542;8.444;2022-08-03T09:35:11;30.10;42.80
20856;DHT22;10588;49.542;8.444;2022-08-03T09:37:37;30.30;42.90
20856;DHT22;10588;49.542;8.444;2022-08-03T09:40:04;30.30;42.90
20856;DHT22;10588;49.542;8.444;2022-08-03T09:42:30;30.30;42.80
20856;DHT22;10588;49.542;8.444;2022-08-03T09:44:55;30.30;42.80
20856;DHT22;10588;49.542;8.444;2022-08-03T09:47:30;30.40;42.80
20856;DHT22;10588;49.542;8.444;2022-08-03T09:50:01;30.40;42.60
20856;DHT22;10588;49.542;8.444;2022-08-03T09:54:56;30.50;42.60
20856;DHT22;10588;49.542;8.444;2022-08-03T09:57:24;30.60;42.60
20856;DHT22;10588;49.542;8.444;2022-08-03T09:59:51;30.50;42.50
20856;DHT22;10588;49.542;8.444;2022-08-03T10:02:24;30.60;42.50
20856;DHT22;10588;49.542;8.444;2022-08-03T10:04:51;30.70;42.60
20856;DHT22;10588;49.542;8.444;2022-08-03T10:07:18;30.70;42.50
20856;DHT22;10588;49.542;8.444;2022-08-03T10:09:53;30.80;42.50
20856;DHT22;10588;49.542;8.444;2022-08-03T10:12:19;30.80;42.40
20856;DHT22;10588;49.542;8.444;2022-08-03T10:14:46;30.90;42.40
20856;DHT22;10588;49.542;8.444;2022-08-03T10:17:12;30.90;42.30
20856;DHT22;10588;49.542;8.444;2022-08-03T10:19:38;31.00;42.20
20856;DHT22;10588;49.542;8.444;2022-08-03T10:22:19;31.00;42.10
20856;DHT22;10588;49.542;8.444;2022-08-03T10:24:59;31.00;42.10
20856;DHT22;10588;49.542;8.444;2022-08-03T10:27:31;31.10;42.10
20856;DHT22;10588;49.542;8.444;2022-08-03T10:30:00;31.20;42.20
20856;DHT22;10588;49.542;8.444;2022-08-03T10:32:33;31.20;42.10
20856;DHT22;10588;49.542;8.444;2022-08-03T10:35:07;31.20;41.90
20856;DHT22;10588;49.542;8.444;2022-08-03T10:37:40;31.30;41.90
20856;DHT22;10588;49.542;8.444;2022-08-03T10:40:09;31.40;41.80
20856;DHT22;10588;49.542;8.444;2022-08-03T10:42:36;31.40;41.70
20856;DHT22;10588;49.542;8.444;2022-08-03T10:45:06;31.50;41.90
20856;DHT22;10588;49.542;8.444;2022-08-03T10:47:34;31.50;41.90
20856;DHT22;10588;49.542;8.444;2022-08-03T10:50:00;31.60;41.70
20856;DHT22;10588;49.542;8.444;2022-08-03T10:52:26;31.70;41.70
20856;DHT22;10588;49.542;8.444;2022-08-03T10:54:52;31.70;41.70
20856;DHT22;10588;49.542;8.444;2022-08-03T10:57:50;31.80;41.70
20856;DHT22;10588;49.542;8.444;2022-08-03T11:00:19;31.80;41.30
20856;DHT22;10588;49.542;8.444;2022-08-03T11:03:11;31.90;41.40
20856;DHT22;10588;49.542;8.444;2022-08-03T11:05:47;31.90;41.00
20856;DHT22;10588;49.542;8.444;2022-08-03T11:10:42;32.10;41.10
20856;DHT22;10588;49.542;8.444;2022-08-03T11:13:08;32.20;41.20
20856;DHT22;10588;49.542;8.444;2022-08-03T11:15:36;32.20;41.00
20856;DHT22;10588;49.542;8.444;2022-08-03T11:18:09;32.30;41.00
20856;DHT22;10588;49.542;8.444;2022-08-03T11:20:56;32.30;40.70
20856;DHT22;10588;49.542;8.444;2022-08-03T11:26:18;32.50;40.40
20856;DHT22;10588;49.542;8.444;2022-08-03T11:28:47;32.50;40.30
20856;DHT22;10588;49.542;8.444;2022-08-03T11:34:05;32.70;40.50
20856;DHT22;10588;49.542;8.444;2022-08-03T11:36:35;32.70;40.50
20856;DHT22;10588;49.542;8.444;2022-08-03T11:39:16;32.80;40.80
20856;DHT22;10588;49.542;8.444;2022-08-03T11:41:41;32.80;40.70
20856;DHT22;10588;49.542;8.444;2022-08-03T11:44:07;32.90;40.60
20856;DHT22;10588;49.542;8.444;2022-08-03T11:46:36;32.90;40.50
20856;DHT22;10588;49.542;8.444;2022-08-03T11:49:05;33.00;40.20
20856;DHT22;10588;49.542;8.444;2022-08-03T11:51:34;33.00;40.30
20856;DHT22;10588;49.542;8.444;2022-08-03T11:54:02;33.10;40.40
20856;DHT22;10588;49.542;8.444;2022-08-03T11:56:46;33.20;40.50
20856;DHT22;10588;49.542;8.444;2022-08-03T11:59:11;33.20;40.10
20856;DHT22;10588;49.542;8.444;2022-08-03T12:01:37;33.30;40.20
20856;DHT22;10588;49.542;8.444;2022-08-03T12:04:04;33.40;40.10
20856;DHT22;10588;49.542;8.444;2022-08-03T12:06:30;33.40;40.10
20856;DHT22;10588;49.542;8.444;2022-08-03T12:09:16;33.50;40.00
20856;DHT22;10588;49.542;8.444;2022-08-03T12:11:42;33.60;40.00
20856;DHT22;10588;49.542;8.444;2022-08-03T12:14:09;33.60;40.00
20856;DHT22;10588;49.542;8.444;2022-08-03T12:16:46;33.70;39.90
20856;DHT22;10588;49.542;8.444;2022-08-03T12:19:12;33.80;39.90
20856;DHT22;10588;49.542;8.444;2022-08-03T12:21:47;33.80;39.80
20856;DHT22;10588;49.542;8.444;2022-08-03T12:24:13;34.00;39.60
20856;DHT22;10588;49.542;8.444;2022-08-03T12:26:48;34.00;39.70
20856;DHT22;10588;49.542;8.444;2022-08-03T12:29:18;34.10;39.30
20856;DHT22;10588;49.542;8.444;2022-08-03T12:31:44;34.20;39.50
20856;DHT22;10588;49.542;8.444;2022-08-03T12:34:09;34.20;39.50
20856;DHT22;10588;49.542;8.444;2022-08-03T12:36:35;34.30;39.50
20856;DHT22;10588;49.542;8.444;2022-08-03T12:39:07;34.40;39.30
20856;DHT22;10588;49.542;8.444;2022-08-03T12:41:37;34.40;38.80
20856;DHT22;10588;49.542;8.444;2022-08-03T12:44:04;34.50;38.70
20856;DHT22;10588;49.542;8.444;2022-08-03T12:46:38;34.60;38.70
20856;DHT22;10588;49.542;8.444;2022-08-03T12:49:13;34.70;38.50
20856;DHT22;10588;49.542;8.444;2022-08-03T12:54:15;34.80;38.70
20856;DHT22;10588;49.542;8.444;2022-08-03T12:57:01;34.90;38.70
20856;DHT22;10588;49.542;8.444;2022-08-03T12:59:38;35.00;38.20
20856;DHT22;10588;49.542;8.444;2022-08-03T13:02:15;35.00;38.40
20856;DHT22;10588;49.542;8.444;2022-08-03T13:04:41;35.10;38.30
20856;DHT22;10588;49.542;8.444;2022-08-03T13:07:08;35.20;38.30
20856;DHT22;10588;49.542;8.444;2022-08-03T13:09:51;35.20;38.20
20856;DHT22;10588;49.542;8.444;2022-08-03T13:12:19;35.30;38.20
20856;DHT22;10588;49.542;8.444;2022-08-03T13:14:47;35.40;38.60
20856;DHT22;10588;49.542;8.444;2022-08-03T13:17:14;35.40;38.20
20856;DHT22;10588;49.542;8.444;2022-08-03T13:19:41;35.50;37.90
20856;DHT22;10588;49.542;8.444;2022-08-03T13:22:27;35.60;37.50
20856;DHT22;10588;49.542;8.444;2022-08-03T13:24:57;35.70;36.70
20856;DHT22;10588;49.542;8.444;2022-08-03T13:27:24;35.80;37.40
20856;DHT22;10588;49.542;8.444;2022-08-03T13:29:49;35.90;37.20
20856;DHT22;10588;49.542;8.444;2022-08-03T13:32:15;36.00;37.00
20856;DHT22;10588;49.542;8.444;2022-08-03T13:34:44;36.10;36.90
20856;DHT22;10588;49.542;8.444;2022-08-03T13:37:09;36.20;36.60
20856;DHT22;10588;49.542;8.444;2022-08-03T13:39:36;36.20;36.60
20856;DHT22;10588;49.542;8.444;2022-08-03T13:42:02;36.30;36.60
20856;DHT22;10588;49.542;8.444;2022-08-03T13:44:32;36.40;36.90
20856;DHT22;10588;49.542;8.444;2022-08-03T13:46:58;36.40;37.00
20856;DHT22;10588;49.542;8.444;2022-08-03T13:49:26;36.60;36.90
20856;DHT22;10588;49.542;8.444;2022-08-03T13:51:53;36.60;36.60
20856;DHT22;10588;49.542;8.444;2022-08-03T13:54:18;36.70;36.60
20856;DHT22;10588;49.542;8.444;2022-08-03T13:56:44;36.80;36.60
20856;DHT22;10588;49.542;8.444;2022-08-03T13:59:17;36.80;36.60
20856;DHT22;10588;49.542;8.444;2022-08-03T14:01:44;36.90;36.70
20856;DHT22;10588;49.542;8.444;2022-08-03T14:04:10;36.90;36.60
20856;DHT22;10588;49.542;8.444;2022-08-03T14:06:36;37.00;36.30
20856;DHT22;10588;49.542;8.444;2022-08-03T14:09:01;37.10;36.20
20856;DHT22;10588;49.542;8.444;2022-08-03T14:11:27;37.20;35.90
20856;DHT22;10588;49.542;8.444;2022-08-03T14:13:53;37.20;35.90
20856;DHT22;10588;49.542;8.444;2022-08-03T14:16:18;37.30;35.90
20856;DHT22;10588;49.542;8.444;2022-08-03T14:18:44;37.40;35.60
20856;DHT22;10588;49.542;8.444;2022-08-03T14:21:11;37.50;35.40
20856;DHT22;10588;49.542;8.444;2022-08-03T14:23:37;37.50;35.50
20856;DHT22;10588;49.542;8.444;2022-08-03T14:26:04;37.60;35.50
20856;DHT22;10588;49.542;8.444;2022-08-03T14:28:30;37.70;35.50
20856;DHT22;10588;49.542;8.444;2022-08-03T14:30:55;37.80;35.50
20856;DHT22;10588;49.542;8.444;2022-08-03T14:33:21;37.80;35.50
20856;DHT22;10588;49.542;8.444;2022-08-03T14:35:47;37.90;35.50
20856;DHT22;10588;49.542;8.444;2022-08-03T14:38:13;38.00;36.20
20856;DHT22;10588;49.542;8.444;2022-08-03T14:40:38;38.00;35.40
20856;DHT22;10588;49.542;8.444;2022-08-03T14:43:04;38.10;35.50
20856;DHT22;10588;49.542;8.444;2022-08-03T14:45:30;38.10;35.40
20856;DHT22;10588;49.542;8.444;2022-08-03T14:47:55;38.10;35.40
20856;DHT22;10588;49.542;8.444;2022-08-03T14:50:21;38.20;35.40
20856;DHT22;10588;49.542;8.444;2022-08-03T14:52:47;38.20;35.30
20856;DHT22;10588;49.542;8.444;2022-08-03T14:55:13;38.30;35.30
20856;DHT22;10588;49.542;8.444;2022-08-03T14:57:38;38.30;35.30
20856;DHT22;10588;49.542;8.444;2022-08-03T15:00:04;38.30;35.20
20856;DHT22;10588;49.542;8.444;2022-08-03T15:02:30;38.40;35.20
20856;DHT22;10588;49.542;8.444;2022-08-03T15:04:57;38.40;35.20
20856;DHT22;10588;49.542;8.444;2022-08-03T15:07:22;38.50;35.10
20856;DHT22;10588;49.542;8.444;2022-08-03T15:09:48;38.50;35.10
20856;DHT22;10588;49.542;8.444;2022-08-03T15:12:14;38.60;35.00
20856;DHT22;10588;49.542;8.444;2022-08-03T15:14:39;38.60;35.00
20856;DHT22;10588;49.542;8.444;2022-08-03T15:17:06;38.70;35.00
20856;DHT22;10588;49.542;8.444;2022-08-03T15:19:31;38.70;34.90
20856;DHT22;10588;49.542;8.444;2022-08-03T15:21:57;38.80;34.60
20856;DHT22;10588;49.542;8.444;2022-08-03T15:24:23;38.80;34.60
20856;DHT22;10588;49.542;8.444;2022-08-03T15:26:50;38.90;34.60
20856;DHT22;10588;49.542;8.444;2022-08-03T15:29:16;39.00;34.50
20856;DHT22;10588;49.542;8.444;2022-08-03T15:31:41;39.00;34.30
20856;DHT22;10588;49.542;8.444;2022-08-03T15:34:07;39.10;34.20
20856;DHT22;10588;49.542;8.444;2022-08-03T15:36:32;39.10;34.10
20856;DHT22;10588;49.542;8.444;2022-08-03T15:38:58;39.10;34.10
20856;DHT22;10588;49.542;8.444;2022-08-03T15:41:23;39.20;34.10
20856;DHT22;10588;49.542;8.444;2022-08-03T15:43:49;39.20;34.10
20856;DHT22;10588;49.542;8.444;2022-08-03T15:46:17;39.30;34.00
20856;DHT22;10588;49.542;8.444;2022-08-03T15:48:42;39.30;34.00
20856;DHT22;10588;49.542;8.444;2022-08-03T15:51:08;39.40;34.00
20856;DHT22;10588;49.542;8.444;2022-08-03T15:53:34;39.40;33.90
20856;DHT22;10588;49.542;8.444;2022-08-03T15:56:01;39.40;33.80
20856;DHT22;10588;49.542;8.444;2022-08-03T15:58:27;39.50;33.70
20856;DHT22;10588;49.542;8.444;2022-08-03T16:00:56;39.50;33.70
20856;DHT22;10588;49.542;8.444;2022-08-03T16:03:22;39.60;33.60